sensor_id;sensor_type;location;lat;lon;timestamp;pressure;altitude;pressure_sealevel;temperature;humidity
51239;BME280;38154;47.548;18.828;2023-01-29T00:02:05;99452.47;;;-0.82;100.00
51239;BME280;38154;47.548;18.828;2023-01-29T00:04:31;99452.31;;;-0.85;100.00
51239;BME280;38154;47.548;18.828;2023-01-29T00:06:57;99453.38;;;-0.82;100.00
51239;BME280;38154;47.548;18.828;2023-01-29T00:09:23;99455.03;;;-0.82;100.00
51239;BME280;38154;47.548;18.828;2023-01-29T00:11:48;99461.22;;;-0.94;100.00
51239;BME280;38154;47.548;18.828;2023-01-29T00:14:14;99460.78;;;-1.01;100.00
51239;BME280;38154;47.548;18.828;2023-01-29T00:16:40;99457.91;;;-1.21;100.00
51239;BME280;38154;47.548;18.828;2023-01-29T00:19:06;99459.16;;;-1.29;100.00
51239;BME280;38154;47.548;18.828;2023-01-29T00:21:31;99464.62;;;-1.23;100.00
51239;BME280;38154;47.548;18.828;2023-01-29T00:23:58;99472.94;;;-1.27;100.00
51239;BME280;38154;47.548;18.828;2023-01-29T00:26:24;99476.56;;;-1.23;100.00
51239;BME280;38154;47.548;18.828;2023-01-29T00:28:50;99472.88;;;-1.14;100.00
51239;BME280;38154;47.548;18.828;2023-01-29T00:31:17;99469.41;;;-1.14;100.00
51239;BME280;38154;47.548;18.828;2023-01-29T00:33:43;99467.37;;;-1.20;100.00
51239;BME280;38154;47.548;18.828;2023-01-29T00:36:09;99478.47;;;-1.19;100.00
51239;BME280;38154;47.548;18.828;2023-01-29T00:38:36;99481.47;;;-1.26;100.00
51239;BME280;38154;47.548;18.828;2023-01-29T00:41:09;99476.19;;;-1.29;100.00
51239;BME280;38154;47.548;18.828;2023-01-29T00:43:53;99482.63;;;-1.21;100.00
51239;BME280;38154;47.548;18.828;2023-01-29T00:46:38;99488.19;;;-1.28;100.00
51239;BME280;38154;47.548;18.828;2023-01-29T00:49:03;99487.12;;;-1.32;100.00
51239;BME280;38154;47.548;18.828;2023-01-29T00:51:29;99481.47;;;-1.26;100.00
51239;BME280;38154;47.548;18.828;2023-01-29T00:53:55;99476.09;;;-1.31;100.00
51239;BME280;38154;47.548;18.828;2023-01-29T00:56:26;99479.00;;;-1.25;100.00
51239;BME280;38154;47.548;18.828;2023-01-29T00:58:52;99467.50;;;-1.46;100.00
51239;BME280;38154;47.548;18.828;2023-01-29T01:01:18;99470.94;;;-1.46;100.00
51239;BME280;38154;47.548;18.828;2023-01-29T01:04:07;99477.34;;;-1.53;100.00
51239;BME280;38154;47.548;18.828;2023-01-29T01:06:35;99469.88;;;-1.50;100.00
51239;BME280;38154;47.548;18.828;2023-01-29T01:09:01;99475.50;;;-1.55;100.00
51239;BME280;38154;47.548;18.828;2023-01-29T01:11:45;99473.69;;;-1.71;100.00
51239;BME280;38154;47.548;18.828;2023-01-29T01:14:10;99472.72;;;-1.73;100.00
51239;BME280;38154;47.548;18.828;2023-01-29T01:16:36;99482.59;;;-1.64;100.00
51239;BME280;38154;47.548;18.828;2023-01-29T01:19:02;99478.31;;;-1.65;100.00
51239;BME280;38154;47.548;18.828;2023-01-29T01:21:28;99477.94;;;-1.85;100.00
51239;BME280;38154;47.548;18.828;2023-01-29T01:23:53;99478.19;;;-1.95;100.00
51239;BME280;38154;47.548;18.828;2023-01-29T01:26:19;99483.28;;;-1.95;100.00
51239;BME280;38154;47.548;18.828;2023-01-29T01:28:45;99485.53;;;-2.00;100.00
51239;BME280;38154;47.548;18.828;2023-01-29T01:31:11;99485.94;;;-1.94;100.00
51239;BME280;38154;47.548;18.828;2023-01-29T01:33:37;99479.84;;;-1.96;100.00
51239;BME280;38154;47.548;18.828;2023-01-29T01:36:03;99487.44;;;-1.97;100.00
51239;BME280;38154;47.548;18.828;2023-01-29T01:38:29;99485.06;;;-1.94;100.00
51239;BME280;38154;47.548;18.828;2023-01-29T01:40:55;99492.03;;;-2.05;100.00
51239;BME280;38154;47.548;18.828;2023-01-29T01:43:21;99490.47;;;-2.03;100.00
51239;BME280;38154;47.548;18.828;2023-01-29T01:45:46;99492.88;;;-2.19;100.00
51239;BME280;38154;47.548;18.828;2023-01-29T01:48:14;99489.91;;;-2.26;100.00
51239;BME280;38154;47.548;18.828;2023-01-29T01:50:44;99477.44;;;-2.21;100.00
51239;BME280;38154;47.548;18.828;2023-01-29T01:53:12;99488.75;;;-2.31;100.00
51239;BME280;38154;47.548;18.828;2023-01-29T01:55:47;99484.91;;;-2.37;100.00
51239;BME280;38154;47.548;18.828;2023-01-29T01:58:16;99487.06;;;-2.44;100.00
51239;BME280;38154;47.548;18.828;2023-01-29T02:00:42;99485.31;;;-2.45;100.00
51239;BME280;38154;47.548;18.828;2023-01-29T02:03:07;99486.97;;;-2.45;100.00
51239;BME280;38154;47.548;18.828;2023-01-29T02:05:53;99490.41;;;-2.45;100.00
51239;BME280;38154;47.548;18.828;2023-01-29T02:08:41;99497.19;;;-2.45;100.00
51239;BME280;38154;47.548;18.828;2023-01-29T02:11:28;99500.63;;;-2.45;100.00
51239;BME280;38154;47.548;18.828;2023-01-29T02:13:54;99504.72;;;-2.47;100.00
51239;BME280;38154;47.548;18.828;2023-01-29T02:16:21;99496.50;;;-2.43;100.00
51239;BME280;38154;47.548;18.828;2023-01-29T02:18:47;99499.06;;;-2.16;100.00
51239;BME280;38154;47.548;18.828;2023-01-29T02:26:18;99504.31;;;-1.58;100.00
51239;BME280;38154;47.548;18.828;2023-01-29T02:28:54;99506.28;;;-1.54;100.00
51239;BME280;38154;47.548;18.828;2023-01-29T02:31:43;99498.72;;;-1.52;100.00
51239;BME280;38154;47.548;18.828;2023-01-29T02:34:17;99501.62;;;-1.46;100.00
51239;BME280;38154;47.548;18.828;2023-01-29T02:36:49;99506.16;;;-1.42;100.00
51239;BME280;38154;47.548;18.828;2023-01-29T02:41:43;99519.38;;;-1.34;100.00
51239;BME280;38154;47.548;18.828;2023-01-29T02:44:22;99516.53;;;-1.25;100.00
51239;BME280;38154;47.548;18.828;2023-01-29T02:47:03;99517.59;;;-1.22;100.00
51239;BME280;38154;47.548;18.828;2023-01-29T02:52:03;99521.91;;;-1.06;100.00
51239;BME280;38154;47.548;18.828;2023-01-29T02:54:43;99530.66;;;-1.02;100.00
51239;BME280;38154;47.548;18.828;2023-01-29T02:57:16;99523.97;;;-1.00;100.00
51239;BME280;38154;47.548;18.828;2023-01-29T02:59:54;99524.06;;;-0.99;100.00
51239;BME280;38154;47.548;18.828;2023-01-29T03:02:24;99526.88;;;-0.94;100.00
51239;BME280;38154;47.548;18.828;2023-01-29T03:04:53;99533.44;;;-0.84;100.00
51239;BME280;38154;47.548;18.828;2023-01-29T03:07:23;99532.75;;;-0.82;100.00
51239;BME280;38154;47.548;18.828;2023-01-29T03:10:27;99526.03;;;-0.80;100.00
51239;BME280;38154;47.548;18.828;2023-01-29T03:12:57;99534.06;;;-0.73;100.00
51239;BME280;38154;47.548;18.828;2023-01-29T03:15:26;99533.34;;;-0.71;100.00
51239;BME280;38154;47.548;18.828;2023-01-29T03:20:23;99536.63;;;-0.73;100.00
51239;BME280;38154;47.548;18.828;2023-01-29T03:22:57;99529.03;;;-0.72;100.00
51239;BME280;38154;47.548;18.828;2023-01-29T03:25:25;99532.66;;;-0.68;100.00
51239;BME280;38154;47.548;18.828;2023-01-29T03:28:11;99539.28;;;-0.72;100.00
51239;BME280;38154;47.548;18.828;2023-01-29T03:30:59;99530.97;;;-0.68;100.00
51239;BME280;38154;47.548;18.828;2023-01-29T03:36:34;99538.22;;;-0.61;100.00
51239;BME280;38154;47.548;18.828;2023-01-29T03:39:09;99548.53;;;-0.59;100.00
51239;BME280;38154;47.548;18.828;2023-01-29T03:41:37;99554.38;;;-0.62;100.00
51239;BME280;38154;47.548;18.828;2023-01-29T03:46:37;99559.41;;;-0.63;100.00
51239;BME280;38154;47.548;18.828;2023-01-29T03:49:11;99549.25;;;-0.77;100.00
51239;BME280;38154;47.548;18.828;2023-01-29T03:51:42;99554.47;;;-0.75;100.00
51239;BME280;38154;47.548;18.828;2023-01-29T03:57:02;99556.78;;;-0.65;100.00
51239;BME280;38154;47.548;18.828;2023-01-29T04:02:02;99551.28;;;-0.56;100.00
51239;BME280;38154;47.548;18.828;2023-01-29T04:04:30;99555.25;;;-0.61;100.00
51239;BME280;38154;47.548;18.828;2023-01-29T04:06:59;99556.41;;;-0.56;100.00
51239;BME280;38154;47.548;18.828;2023-01-29T04:09:29;99547.84;;;-0.57;100.00
51239;BME280;38154;47.548;18.828;2023-01-29T04:12:01;99550.50;;;-0.55;100.00
51239;BME280;38154;47.548;18.828;2023-01-29T04:14:28;99553.66;;;-0.59;100.00
51239;BME280;38154;47.548;18.828;2023-01-29T04:16:56;99549.59;;;-0.56;100.00
51239;BME280;38154;47.548;18.828;2023-01-29T04:19:24;99544.31;;;-0.59;100.00
51239;BME280;38154;47.548;18.828;2023-01-29T04:21:51;99545.47;;;-0.68;100.00
51239;BME280;38154;47.548;18.828;2023-01-29T04:24:23;99551.84;;;-0.62;100.00
51239;BME280;38154;47.548;18.828;2023-01-29T04:27:53;99549.34;;;-0.60;100.00
51239;BME280;38154;47.548;18.828;2023-01-29T04:32:48;99549.25;;;-0.62;100.00
51239;BME280;38154;47.548;18.828;2023-01-29T04:37:49;99548.22;;;-0.65;100.00
51239;BME280;38154;47.548;18.828;2023-01-29T04:40:22;99546.34;;;-0.68;100.00
51239;BME280;38154;47.548;18.828;2023-01-29T04:45:29;99545.56;;;-0.67;100.00
51239;BME280;38154;47.548;18.828;2023-01-29T04:48:05;99542.91;;;-0.68;100.00
51239;BME280;38154;47.548;18.828;2023-01-29T04:50:41;99547.50;;;-0.63;100.00
51239;BME280;38154;47.548;18.828;2023-01-29T04:53:14;99543.34;;;-0.61;100.00
51239;BME280;38154;47.548;18.828;2023-01-29T04:55:54;99552.59;;;-0.63;100.00
51239;BME280;38154;47.548;18.828;2023-01-29T04:58:34;99551.19;;;-0.72;100.00
51239;BME280;38154;47.548;18.828;2023-01-29T05:01:04;99548.03;;;-0.68;100.00
51239;BME280;38154;47.548;18.828;2023-01-29T05:03:31;99547.41;;;-0.64;100.00
51239;BME280;38154;47.548;18.828;2023-01-29T05:05:58;99544.84;;;-0.64;100.00
51239;BME280;38154;47.548;18.828;2023-01-29T05:08:25;99543.97;;;-0.65;100.00
51239;BME280;38154;47.548;18.828;2023-01-29T05:10:52;99547.41;;;-0.64;100.00
51239;BME280;38154;47.548;18.828;2023-01-29T05:13:19;99548.34;;;-0.62;100.00
51239;BME280;38154;47.548;18.828;2023-01-29T05:15:48;99537.97;;;-0.65;100.00
51239;BME280;38154;47.548;18.828;2023-01-29T05:18:14;99534.41;;;-0.67;100.00
51239;BME280;38154;47.548;18.828;2023-01-29T05:20:41;99544.84;;;-0.64;100.00
51239;BME280;38154;47.548;18.828;2023-01-29T05:23:08;99540.25;;;-0.70;100.00
51239;BME280;38154;47.548;18.828;2023-01-29T05:25:35;99547.41;;;-0.64;100.00
51239;BME280;38154;47.548;18.828;2023-01-29T05:28:00;99548.03;;;-0.68;100.00
51239;BME280;38154;47.548;18.828;2023-01-29T05:30:41;99554.22;;;-0.65;100.00
51239;BME280;38154;47.548;18.828;2023-01-29T05:33:13;99547.03;;;-0.70;100.00
51239;BME280;38154;47.548;18.828;2023-01-29T05:35:39;99548.28;;;-0.64;100.00
51239;BME280;38154;47.548;18.828;2023-01-29T05:38:05;99549.69;;;-0.69;100.00
51239;BME280;38154;47.548;18.828;2023-01-29T05:40:31;99558.28;;;-0.68;100.00
51239;BME280;38154;47.548;18.828;2023-01-29T05:42:57;99551.00;;;-0.76;100.00
51239;BME280;38154;47.548;18.828;2023-01-29T05:45:22;99560.56;;;-0.73;100.00
51239;BME280;38154;47.548;18.828;2023-01-29T05:47:48;99564.28;;;-0.68;100.00
51239;BME280;38154;47.548;18.828;2023-01-29T05:50:14;99567.37;;;-0.73;100.00
51239;BME280;38154;47.548;18.828;2023-01-29T05:52:40;99572.22;;;-0.63;100.00
51239;BME280;38154;47.548;18.828;2023-01-29T05:55:06;99563.91;;;-0.59;100.00
51239;BME280;38154;47.548;18.828;2023-01-29T05:57:32;99567.53;;;-0.56;100.00
51239;BME280;38154;47.548;18.828;2023-01-29T05:59:58;99567.88;;;-0.64;100.00
51239;BME280;38154;47.548;18.828;2023-01-29T06:02:23;99567.53;;;-0.56;100.00
51239;BME280;38154;47.548;18.828;2023-01-29T06:04:50;99564.63;;;-0.62;100.00
51239;BME280;38154;47.548;18.828;2023-01-29T06:07:17;99575.13;;;-0.57;100.00
51239;BME280;38154;47.548;18.828;2023-01-29T06:09:42;99575.22;;;-0.56;100.00
51239;BME280;38154;47.548;18.828;2023-01-29T06:12:08;99577.69;;;-0.57;100.00
51239;BME280;38154;47.548;18.828;2023-01-29T06:14:33;99576.91;;;-0.56;100.00
51239;BME280;38154;47.548;18.828;2023-01-29T06:16:59;99571.88;;;-0.54;100.00
51239;BME280;38154;47.548;18.828;2023-01-29T06:19:25;99570.91;;;-0.57;100.00
51239;BME280;38154;47.548;18.828;2023-01-29T06:21:50;99580.19;;;-0.59;100.00
51239;BME280;38154;47.548;18.828;2023-01-29T06:24:16;99579.09;;;-0.62;100.00
51239;BME280;38154;47.548;18.828;2023-01-29T06:26:42;99584.22;;;-0.62;100.00
51239;BME280;38154;47.548;18.828;2023-01-29T06:29:07;99589.25;;;-0.64;100.00
51239;BME280;38154;47.548;18.828;2023-01-29T06:31:33;99600.41;;;-0.63;100.00
51239;BME280;38154;47.548;18.828;2023-01-29T06:33:59;99594.03;;;-0.70;100.00
51239;BME280;38154;47.548;18.828;2023-01-29T06:36:24;99603.38;;;-0.70;100.00
51239;BME280;38154;47.548;18.828;2023-01-29T06:38:50;99597.09;;;-0.76;100.00
51239;BME280;38154;47.548;18.828;2023-01-29T06:41:16;99598.00;;;-0.75;100.00
51239;BME280;38154;47.548;18.828;2023-01-29T06:43:43;99597.28;;;-0.72;100.00
51239;BME280;38154;47.548;18.828;2023-01-29T06:46:09;99597.28;;;-0.72;100.00
51239;BME280;38154;47.548;18.828;2023-01-29T06:48:34;99606.38;;;-0.78;100.00
51239;BME280;38154;47.548;18.828;2023-01-29T06:51:03;99608.59;;;-0.84;100.00
51239;BME280;38154;47.548;18.828;2023-01-29T06:53:29;99611.19;;;-0.82;100.00
51239;BME280;38154;47.548;18.828;2023-01-29T06:55:55;99603.22;;;-0.73;100.00
51239;BME280;38154;47.548;18.828;2023-01-29T06:58:21;99602.41;;;-0.72;100.00
51239;BME280;38154;47.548;18.828;2023-01-29T07:00:46;99599.25;;;-0.68;100.00
51239;BME280;38154;47.548;18.828;2023-01-29T07:03:12;99609.69;;;-0.65;100.00
51239;BME280;38154;47.548;18.828;2023-01-29T07:05:38;99598.25;;;-0.70;100.00
51239;BME280;38154;47.548;18.828;2023-01-29T07:08:03;99601.72;;;-0.70;100.00
51239;BME280;38154;47.548;18.828;2023-01-29T07:10:29;99607.13;;;-0.65;100.00
51239;BME280;38154;47.548;18.828;2023-01-29T07:12:57;99600.31;;;-0.65;100.00
51239;BME280;38154;47.548;18.828;2023-01-29T07:15:23;99601.38;;;-0.61;100.00
51239;BME280;38154;47.548;18.828;2023-01-29T07:17:58;99593.12;;;-0.70;100.00
51239;BME280;38154;47.548;18.828;2023-01-29T07:20:25;99602.59;;;-0.69;100.00
51239;BME280;38154;47.548;18.828;2023-01-29T07:22:50;99603.06;;;-0.62;100.00
51239;BME280;38154;47.548;18.828;2023-01-29T07:25:16;99593.59;;;-0.63;100.00
51239;BME280;38154;47.548;18.828;2023-01-29T07:27:42;99593.25;;;-0.54;100.00
51239;BME280;38154;47.548;18.828;2023-01-29T07:30:08;99600.13;;;-0.53;100.00
51239;BME280;38154;47.548;18.828;2023-01-29T07:32:34;99599.34;;;-0.52;100.00
51239;BME280;38154;47.548;18.828;2023-01-29T07:34:59;99597.66;;;-0.51;100.00
51239;BME280;38154;47.548;18.828;2023-01-29T07:37:25;99597.94;;;-0.47;100.00
51239;BME280;38154;47.548;18.828;2023-01-29T07:39:50;99594.56;;;-0.46;100.00
51239;BME280;38154;47.548;18.828;2023-01-29T07:42:16;99592.19;;;-0.43;100.00
51239;BME280;38154;47.548;18.828;2023-01-29T07:44:42;99596.72;;;-0.39;100.00
51239;BME280;38154;47.548;18.828;2023-01-29T07:47:07;99597.06;;;-0.17;100.00
51239;BME280;38154;47.548;18.828;2023-01-29T07:49:33;99600.75;;;-0.12;100.00
51239;BME280;38154;47.548;18.828;2023-01-29T07:51:59;99605.28;;;-0.08;100.00
51239;BME280;38154;47.548;18.828;2023-01-29T07:54:24;99609.16;;;-0.15;100.00
51239;BME280;38154;47.548;18.828;2023-01-29T07:56:50;99611.47;;;-0.05;100.00
51239;BME280;38154;47.548;18.828;2023-01-29T07:59:16;99605.00;;;0.02;100.00
51239;BME280;38154;47.548;18.828;2023-01-29T08:01:41;99604.50;;;0.24;100.00
51239;BME280;38154;47.548;18.828;2023-01-29T08:04:07;99605.09;;;0.35;100.00
51239;BME280;38154;47.548;18.828;2023-01-29T08:06:33;99601.34;;;0.45;100.00
51239;BME280;38154;47.548;18.828;2023-01-29T08:08:58;99604.41;;;0.37;100.00
51239;BME280;38154;47.548;18.828;2023-01-29T08:11:24;99599.09;;;0.34;100.00
51239;BME280;38154;47.548;18.828;2023-01-29T08:13:49;99607.25;;;0.27;100.00
51239;BME280;38154;47.548;18.828;2023-01-29T08:16:16;99600.53;;;0.29;100.00
51239;BME280;38154;47.548;18.828;2023-01-29T08:18:41;99600.06;;;0.36;100.00
51239;BME280;38154;47.548;18.828;2023-01-29T08:21:10;99603.06;;;0.44;100.00
51239;BME280;38154;47.548;18.828;2023-01-29T08:23:36;99609.12;;;0.46;100.00
51239;BME280;38154;47.548;18.828;2023-01-29T08:26:02;99611.63;;;0.45;100.00
51239;BME280;38154;47.548;18.828;2023-01-29T08:28:27;99612.09;;;0.37;100.00
51239;BME280;38154;47.548;18.828;2023-01-29T08:30:53;99612.66;;;0.32;100.00
51239;BME280;38154;47.548;18.828;2023-01-29T08:33:19;99616.09;;;0.17;100.00
51239;BME280;38154;47.548;18.828;2023-01-29T08:35:48;99622.22;;;0.05;100.00
51239;BME280;38154;47.548;18.828;2023-01-29T08:38:15;99623.47;;;-0.04;100.00
51239;BME280;38154;47.548;18.828;2023-01-29T08:40:40;99626.56;;;-0.09;100.00
51239;BME280;38154;47.548;18.828;2023-01-29T08:43:06;99630.53;;;0.01;100.00
51239;BME280;38154;47.548;18.828;2023-01-29T08:45:33;99641.94;;;-0.09;100.00
51239;BME280;38154;47.548;18.828;2023-01-29T08:47:59;99642.03;;;-0.08;100.00
51239;BME280;38154;47.548;18.828;2023-01-29T08:50:25;99643.63;;;-0.10;100.00
51239;BME280;38154;47.548;18.828;2023-01-29T08:52:50;99647.00;;;-0.11;100.00
51239;BME280;38154;47.548;18.828;2023-01-29T08:55:16;99649.47;;;-0.12;100.00
51239;BME280;38154;47.548;18.828;2023-01-29T08:57:42;99659.09;;;-0.08;100.00
51239;BME280;38154;47.548;18.828;2023-01-29T09:00:08;99665.47;;;-0.02;100.00
51239;BME280;38154;47.548;18.828;2023-01-29T09:02:35;99660.34;;;-0.02;100.00
51239;BME280;38154;47.548;18.828;2023-01-29T09:05:00;99664.75;;;0.01;100.00
51239;BME280;38154;47.548;18.828;2023-01-29T09:07:27;99663.50;;;0.09;100.00
51239;BME280;38154;47.548;18.828;2023-01-29T09:09:53;99675.00;;;0.16;100.00
51239;BME280;38154;47.548;18.828;2023-01-29T09:12:19;99668.72;;;0.11;100.00
51239;BME280;38154;47.548;18.828;2023-01-29T09:14:45;99668.28;;;0.03;100.00
51239;BME280;38154;47.548;18.828;2023-01-29T09:17:10;99666.44;;;0.01;100.00
51239;BME280;38154;47.548;18.828;2023-01-29T09:19:36;99667.59;;;0.06;100.00
51239;BME280;38154;47.548;18.828;2023-01-29T09:22:02;99667.78;;;0.09;100.00
51239;BME280;38154;47.548;18.828;2023-01-29T09:24:27;99675.66;;;0.12;100.00
51239;BME280;38154;47.548;18.828;2023-01-29T09:26:54;99666.44;;;0.01;100.00
51239;BME280;38154;47.548;18.828;2023-01-29T09:29:19;99667.13;;;-0.17;100.00
51239;BME280;38154;47.548;18.828;2023-01-29T09:31:45;99673.84;;;-0.19;100.00
51239;BME280;38154;47.548;18.828;2023-01-29T09:34:11;99672.87;;;-0.21;100.00
51239;BME280;38154;47.548;18.828;2023-01-29T09:36:36;99669.97;;;-0.12;100.00
51239;BME280;38154;47.548;18.828;2023-01-29T09:39:02;99669.00;;;-0.14;100.00
51239;BME280;38154;47.548;18.828;2023-01-29T09:46:42;99683.25;;;-0.05;100.00
51239;BME280;38154;47.548;18.828;2023-01-29T09:49:15;99677.06;;;-0.08;100.00
51239;BME280;38154;47.548;18.828;2023-01-29T09:51:48;99678.47;;;-0.13;100.00
51239;BME280;38154;47.548;18.828;2023-01-29T09:54:20;99672.50;;;-0.27;100.00
51239;BME280;38154;47.548;18.828;2023-01-29T09:56:47;99681.81;;;-0.14;100.00
51239;BME280;38154;47.548;18.828;2023-01-29T09:59:15;99678.09;;;-0.20;100.00
51239;BME280;38154;47.548;18.828;2023-01-29T10:01:53;99679.50;;;-0.25;100.00
51239;BME280;38154;47.548;18.828;2023-01-29T10:04:27;99680.84;;;-0.16;100.00
51239;BME280;38154;47.548;18.828;2023-01-29T10:20:33;99672.59;;;-0.26;100.00
51239;BME280;38154;47.548;18.828;2023-01-29T10:25:31;99673.06;;;-0.18;100.00
51239;BME280;38154;47.548;18.828;2023-01-29T10:27:58;99678.53;;;-0.12;100.00
51239;BME280;38154;47.548;18.828;2023-01-29T10:30:29;99678.63;;;-0.10;100.00
51239;BME280;38154;47.548;18.828;2023-01-29T10:32:58;99684.19;;;-0.17;100.00
51239;BME280;38154;47.548;18.828;2023-01-29T10:35:30;99689.31;;;-0.17;100.00
51239;BME280;38154;47.548;18.828;2023-01-29T10:37:57;99684.00;;;-0.21;100.00
51239;BME280;38154;47.548;18.828;2023-01-29T10:40:46;99678.47;;;-0.13;100.00
51239;BME280;38154;47.548;18.828;2023-01-29T10:43:18;99677.47;;;-0.15;100.00
51239;BME280;38154;47.548;18.828;2023-01-29T10:48:30;99670.06;;;-0.11;99.09
51239;BME280;38154;47.548;18.828;2023-01-29T10:51:06;99663.78;;;-0.01;100.00
51239;BME280;38154;47.548;18.828;2023-01-29T10:53:39;99655.47;;;0.03;97.74
51239;BME280;38154;47.548;18.828;2023-01-29T11:01:08;99651.81;;;0.29;96.84
51239;BME280;38154;47.548;18.828;2023-01-29T11:03:34;99639.44;;;0.37;94.27
51239;BME280;38154;47.548;18.828;2023-01-29T11:06:06;99638.25;;;0.47;93.75
51239;BME280;38154;47.548;18.828;2023-01-29T11:11:15;99636.41;;;0.44;89.85
51239;BME280;38154;47.548;18.828;2023-01-29T11:13:44;99636.66;;;0.49;90.91
51239;BME280;38154;47.548;18.828;2023-01-29T11:16:12;99626.41;;;0.49;90.80
51239;BME280;38154;47.548;18.828;2023-01-29T11:18:54;99613.81;;;0.53;89.32
51239;BME280;38154;47.548;18.828;2023-01-29T11:21:20;99606.34;;;0.58;90.32
51239;BME280;38154;47.548;18.828;2023-01-29T11:23:46;99599.66;;;0.77;89.14
51239;BME280;38154;47.548;18.828;2023-01-29T11:26:12;99600.53;;;0.77;89.07
51239;BME280;38154;47.548;18.828;2023-01-29T11:31:17;99595.25;;;0.74;86.37
51239;BME280;38154;47.548;18.828;2023-01-29T11:33:42;99590.03;;;0.72;86.73
51239;BME280;38154;47.548;18.828;2023-01-29T11:36:42;99588.72;;;0.64;84.83
51239;BME280;38154;47.548;18.828;2023-01-29T11:41:47;99585.06;;;0.92;83.64
51239;BME280;38154;47.548;18.828;2023-01-29T11:44:16;99577.75;;;0.83;81.07
51239;BME280;38154;47.548;18.828;2023-01-29T11:46:42;99568.69;;;0.90;83.34
51239;BME280;38154;47.548;18.828;2023-01-29T11:49:11;99566.28;;;1.09;81.04
51239;BME280;38154;47.548;18.828;2023-01-29T11:51:44;99575.56;;;1.24;81.58
51239;BME280;38154;47.548;18.828;2023-01-29T11:54:16;99579.88;;;1.58;78.87
51239;BME280;38154;47.548;18.828;2023-01-29T11:56:44;99567.13;;;1.43;79.96
51239;BME280;38154;47.548;18.828;2023-01-29T12:01:55;99562.09;;;1.28;81.65
51239;BME280;38154;47.548;18.828;2023-01-29T12:04:27;99566.72;;;1.35;83.31
51239;BME280;38154;47.548;18.828;2023-01-29T12:06:54;99560.97;;;1.23;80.40
51239;BME280;38154;47.548;18.828;2023-01-29T12:09:21;99553.59;;;1.13;79.59
51239;BME280;38154;47.548;18.828;2023-01-29T12:11:48;99548.47;;;0.96;80.80
51239;BME280;38154;47.548;18.828;2023-01-29T12:14:35;99562.25;;;0.65;81.86
51239;BME280;38154;47.548;18.828;2023-01-29T12:17:12;99553.16;;;0.39;81.93
51239;BME280;38154;47.548;18.828;2023-01-29T12:19:51;99554.59;;;0.34;83.27
51239;BME280;38154;47.548;18.828;2023-01-29T12:22:26;99552.53;;;0.43;81.70
51239;BME280;38154;47.548;18.828;2023-01-29T12:24:58;99551.84;;;0.62;82.34
51239;BME280;38154;47.548;18.828;2023-01-29T12:37:44;99543.13;;;0.27;82.24
51239;BME280;38154;47.548;18.828;2023-01-29T12:40:13;99546.41;;;0.25;84.43
51239;BME280;38154;47.548;18.828;2023-01-29T12:42:40;99543.69;;;0.38;84.07
51239;BME280;38154;47.548;18.828;2023-01-29T12:45:07;99534.97;;;0.34;83.73
51239;BME280;38154;47.548;18.828;2023-01-29T12:48:18;99538.03;;;0.44;84.14
51239;BME280;38154;47.548;18.828;2023-01-29T12:52:54;99526.41;;;0.50;81.15
51239;BME280;38154;47.548;18.828;2023-01-29T12:55:23;99525.12;;;0.59;82.51
51239;BME280;38154;47.548;18.828;2023-01-29T12:57:53;99520.97;;;0.61;81.93
51239;BME280;38154;47.548;18.828;2023-01-29T13:00:21;99518.22;;;0.58;83.03
51239;BME280;38154;47.548;18.828;2023-01-29T13:05:21;99504.59;;;0.42;84.70
51239;BME280;38154;47.548;18.828;2023-01-29T13:07:51;99504.38;;;0.54;82.73
51239;BME280;38154;47.548;18.828;2023-01-29T13:10:20;99502.03;;;0.42;82.88
51239;BME280;38154;47.548;18.828;2023-01-29T13:12:52;99491.97;;;0.14;81.08
51239;BME280;38154;47.548;18.828;2023-01-29T13:15:33;99495.25;;;-0.20;83.31
51239;BME280;38154;47.548;18.828;2023-01-29T13:18:16;99497.13;;;-0.32;86.96
51239;BME280;38154;47.548;18.828;2023-01-29T13:20:45;99495.19;;;-0.36;85.85
51239;BME280;38154;47.548;18.828;2023-01-29T13:23:24;99491.50;;;-0.42;88.00
51239;BME280;38154;47.548;18.828;2023-01-29T13:25:52;99483.28;;;-0.51;87.99
51239;BME280;38154;47.548;18.828;2023-01-29T13:28:19;99479.56;;;-0.71;88.04
51239;BME280;38154;47.548;18.828;2023-01-29T13:30:45;99482.31;;;-0.68;87.94
51239;BME280;38154;47.548;18.828;2023-01-29T13:33:14;99488.06;;;-0.72;88.47
51239;BME280;38154;47.548;18.828;2023-01-29T13:35:43;99481.63;;;-0.80;87.29
51239;BME280;38154;47.548;18.828;2023-01-29T13:41:09;99479.75;;;-0.83;89.97
51239;BME280;38154;47.548;18.828;2023-01-29T13:43:36;99483.19;;;-0.82;90.38
51239;BME280;38154;47.548;18.828;2023-01-29T13:46:08;99483.91;;;-0.85;89.89
51239;BME280;38154;47.548;18.828;2023-01-29T13:48:41;99482.94;;;-0.87;91.51
51239;BME280;38154;47.548;18.828;2023-01-29T13:51:11;99472.94;;;-0.82;89.82
51239;BME280;38154;47.548;18.828;2023-01-29T13:53:50;99468.72;;;-0.82;90.28
51239;BME280;38154;47.548;18.828;2023-01-29T13:59:02;99480.47;;;-0.85;89.59
51239;BME280;38154;47.548;18.828;2023-01-29T14:04:19;99469.00;;;-0.92;90.15
51239;BME280;38154;47.548;18.828;2023-01-29T14:06:51;99485.13;;;-0.93;91.06
51239;BME280;38154;47.548;18.828;2023-01-29T14:11:58;99480.91;;;-0.93;90.65
51239;BME280;38154;47.548;18.828;2023-01-29T14:17:08;99500.16;;;-0.84;91.68
51239;BME280;38154;47.548;18.828;2023-01-29T14:19:33;99496.34;;;-0.91;91.62
51239;BME280;38154;47.548;18.828;2023-01-29T14:21:59;99493.69;;;-1.07;92.09
51239;BME280;38154;47.548;18.828;2023-01-29T14:24:26;99494.41;;;-1.10;93.18
51239;BME280;38154;47.548;18.828;2023-01-29T14:26:53;99496.31;;;-1.21;95.12
51239;BME280;38154;47.548;18.828;2023-01-29T14:29:23;99495.91;;;-1.14;96.18
51239;BME280;38154;47.548;18.828;2023-01-29T14:32:13;99486.19;;;-1.04;95.61
51239;BME280;38154;47.548;18.828;2023-01-29T14:34:44;99491.22;;;-0.91;96.21
51239;BME280;38154;47.548;18.828;2023-01-29T14:39:47;99478.00;;;-0.99;93.77